Terminal Aerodrome Forecast
Issued by NWS Shreveport, LA

Home | Current Version | Previous Version | Text Only | Print | Product List | Glossary On
Versions: 1 2 3 4 5 6 7 8 9 10 11 12 13
179
FTUS44 KSHV 261120
TAFLFK
TAF
KLFK 261120Z 2612/2712 12007KT P6SM FEW120
     FM261500 12007KT P6SM FEW120
     FM261700 15011KT P6SM SCT070
     FM262200 14011KT P6SM SCT030 BKN070
     FM270200 14011KT P6SM VCTS SCT015 BKN030CB
     FM270500 16011KT 4SM -TSRA BR OVC015CB=

USA.gov is the U.S. government's official web portal to all federal, state and local government web resources and services.